Terminal Aerodrome Forecast
Issued by NWS Charleston, SC

Home | Current Version | Previous Version | Text Only | Print | Product List | Glossary On
Versions: 1 2 3 4 5 6 7 8 9 10 11 12 13 14 15 16 17 18 19 20 21 22
000
FTUS42 KCHS 211300 AAA
TAFCHS
TAF AMD
KCHS 211317Z 2113/2212 02008KT P6SM -RA SCT007 OVC030
      TEMPO 2113/2116 BKN007
     FM211700 03008KT P6SM VCSH SCT007 OVC010
     FM220000 04007KT 6SM BR VCSH OVC007
     FM220600 03006KT 3SM -RADZ BR OVC004=

USA.gov is the U.S. government's official web portal to all federal, state and local government web resources and services.